Rio Grande, Texas
Current Conditions -  °F | °C
As of 11:15 AM on Thursday 23 Oct 2014 (Local Time) from KEBG Reporting Station
Scattered Clouds Scattered Clouds  
Wind Chill: 80°   Ceiling: Unl
Heat Index: 82°   Visibility: 10mi
Dew Point: 67°   Wind: 5mph
Humidity: 65%   Direction: 10°N
Pressure: 30.11"   Gusts: NA
Location:  26.5735°N, 98.695°W
Report Text: KEBG 231615Z AUTO 01004KT 10SM SCT120 26/19 A3011 RMK AO2 T02640194
Loading
Personal Weather Stations






























Interactive Weather Map
Tropical Storm Tracking
New forecast layout! Learn more

10-Day Weather Forecast

Advertisements
Track Severe Weather on mobile